sensor_id;sensor_type;location;lat;lon;timestamp;P1;durP1;ratioP1;P2;durP2;ratioP2
20657;SDS011;10488;50.846;4.078;2022-07-23T00:01:21;34.45;;;24.00;;
20657;SDS011;10488;50.846;4.078;2022-07-23T00:03:47;31.85;;;23.90;;
20657;SDS011;10488;50.846;4.078;2022-07-23T00:06:13;34.25;;;24.85;;
20657;SDS011;10488;50.846;4.078;2022-07-23T00:08:39;36.72;;;25.27;;
20657;SDS011;10488;50.846;4.078;2022-07-23T00:11:05;33.10;;;24.38;;
20657;SDS011;10488;50.846;4.078;2022-07-23T00:13:31;29.50;;;23.58;;
20657;SDS011;10488;50.846;4.078;2022-07-23T00:15:57;33.42;;;23.65;;
20657;SDS011;10488;50.846;4.078;2022-07-23T00:18:23;35.60;;;24.77;;
20657;SDS011;10488;50.846;4.078;2022-07-23T00:20:49;36.78;;;25.20;;
20657;SDS011;10488;50.846;4.078;2022-07-23T00:23:14;32.03;;;24.60;;
20657;SDS011;10488;50.846;4.078;2022-07-23T00:25:40;31.08;;;24.48;;
20657;SDS011;10488;50.846;4.078;2022-07-23T00:28:06;33.08;;;23.58;;
20657;SDS011;10488;50.846;4.078;2022-07-23T00:30:32;33.17;;;23.40;;
20657;SDS011;10488;50.846;4.078;2022-07-23T00:32:59;29.33;;;23.15;;
20657;SDS011;10488;50.846;4.078;2022-07-23T00:35:31;32.50;;;22.25;;
20657;SDS011;10488;50.846;4.078;2022-07-23T00:38:01;33.85;;;24.20;;
20657;SDS011;10488;50.846;4.078;2022-07-23T00:40:28;31.77;;;23.58;;
20657;SDS011;10488;50.846;4.078;2022-07-23T00:42:54;37.63;;;24.52;;
20657;SDS011;10488;50.846;4.078;2022-07-23T00:45:20;35.83;;;24.48;;
20657;SDS011;10488;50.846;4.078;2022-07-23T00:47:46;36.03;;;24.23;;
20657;SDS011;10488;50.846;4.078;2022-07-23T00:50:12;37.75;;;25.52;;
20657;SDS011;10488;50.846;4.078;2022-07-23T00:52:39;40.65;;;27.52;;
20657;SDS011;10488;50.846;4.078;2022-07-23T00:55:06;44.70;;;27.38;;
20657;SDS011;10488;50.846;4.078;2022-07-23T00:57:33;40.28;;;26.23;;
20657;SDS011;10488;50.846;4.078;2022-07-23T00:59:59;37.38;;;26.00;;
20657;SDS011;10488;50.846;4.078;2022-07-23T01:02:25;40.55;;;25.98;;
20657;SDS011;10488;50.846;4.078;2022-07-23T01:04:51;41.38;;;26.25;;
20657;SDS011;10488;50.846;4.078;2022-07-23T01:07:17;41.83;;;26.13;;
20657;SDS011;10488;50.846;4.078;2022-07-23T01:09:44;39.55;;;26.70;;
20657;SDS011;10488;50.846;4.078;2022-07-23T01:12:10;41.58;;;26.23;;
20657;SDS011;10488;50.846;4.078;2022-07-23T01:14:37;42.90;;;26.58;;
20657;SDS011;10488;50.846;4.078;2022-07-23T01:17:02;42.80;;;26.63;;
20657;SDS011;10488;50.846;4.078;2022-07-23T01:19:28;47.97;;;28.58;;
20657;SDS011;10488;50.846;4.078;2022-07-23T01:21:54;40.88;;;27.02;;
20657;SDS011;10488;50.846;4.078;2022-07-23T01:24:22;45.40;;;28.15;;
20657;SDS011;10488;50.846;4.078;2022-07-23T01:26:48;40.13;;;26.67;;
20657;SDS011;10488;50.846;4.078;2022-07-23T01:29:15;38.45;;;24.90;;
20657;SDS011;10488;50.846;4.078;2022-07-23T01:31:41;41.35;;;28.25;;
20657;SDS011;10488;50.846;4.078;2022-07-23T01:34:08;38.22;;;26.00;;
20657;SDS011;10488;50.846;4.078;2022-07-23T01:36:34;35.33;;;25.30;;
20657;SDS011;10488;50.846;4.078;2022-07-23T01:39:00;41.33;;;27.33;;
20657;SDS011;10488;50.846;4.078;2022-07-23T01:41:27;36.15;;;26.00;;
20657;SDS011;10488;50.846;4.078;2022-07-23T01:43:53;33.97;;;24.42;;
20657;SDS011;10488;50.846;4.078;2022-07-23T01:46:18;39.72;;;25.15;;
20657;SDS011;10488;50.846;4.078;2022-07-23T01:48:44;36.30;;;24.48;;
20657;SDS011;10488;50.846;4.078;2022-07-23T01:51:11;38.17;;;26.83;;
20657;SDS011;10488;50.846;4.078;2022-07-23T01:53:36;36.33;;;24.73;;
20657;SDS011;10488;50.846;4.078;2022-07-23T01:56:02;33.42;;;24.88;;
20657;SDS011;10488;50.846;4.078;2022-07-23T01:58:28;36.72;;;25.20;;
20657;SDS011;10488;50.846;4.078;2022-07-23T02:00:54;35.80;;;25.00;;
20657;SDS011;10488;50.846;4.078;2022-07-23T02:03:21;42.55;;;27.48;;
20657;SDS011;10488;50.846;4.078;2022-07-23T02:05:46;35.60;;;24.38;;
20657;SDS011;10488;50.846;4.078;2022-07-23T02:08:12;35.20;;;24.67;;
20657;SDS011;10488;50.846;4.078;2022-07-23T02:10:38;36.35;;;24.17;;
20657;SDS011;10488;50.846;4.078;2022-07-23T02:13:04;42.42;;;25.88;;
20657;SDS011;10488;50.846;4.078;2022-07-23T02:15:30;38.38;;;25.08;;
20657;SDS011;10488;50.846;4.078;2022-07-23T02:17:55;33.97;;;24.45;;
20657;SDS011;10488;50.846;4.078;2022-07-23T02:20:21;35.45;;;23.52;;
20657;SDS011;10488;50.846;4.078;2022-07-23T02:22:47;39.65;;;26.17;;
20657;SDS011;10488;50.846;4.078;2022-07-23T02:25:13;37.25;;;25.58;;
20657;SDS011;10488;50.846;4.078;2022-07-23T02:27:39;40.83;;;25.83;;
20657;SDS011;10488;50.846;4.078;2022-07-23T02:30:05;40.20;;;26.30;;
20657;SDS011;10488;50.846;4.078;2022-07-23T02:32:31;53.40;;;29.50;;
20657;SDS011;10488;50.846;4.078;2022-07-23T02:34:57;42.88;;;24.55;;
20657;SDS011;10488;50.846;4.078;2022-07-23T02:37:23;40.33;;;25.23;;
20657;SDS011;10488;50.846;4.078;2022-07-23T02:39:49;42.67;;;26.10;;
20657;SDS011;10488;50.846;4.078;2022-07-23T02:42:15;38.38;;;24.98;;
20657;SDS011;10488;50.846;4.078;2022-07-23T02:44:41;40.78;;;25.48;;
20657;SDS011;10488;50.846;4.078;2022-07-23T02:47:07;39.95;;;24.30;;
20657;SDS011;10488;50.846;4.078;2022-07-23T02:49:33;42.83;;;25.52;;
20657;SDS011;10488;50.846;4.078;2022-07-23T02:51:58;42.42;;;26.67;;
20657;SDS011;10488;50.846;4.078;2022-07-23T02:54:24;42.72;;;26.70;;
20657;SDS011;10488;50.846;4.078;2022-07-23T02:56:50;41.83;;;26.50;;
20657;SDS011;10488;50.846;4.078;2022-07-23T02:59:16;41.60;;;25.25;;
20657;SDS011;10488;50.846;4.078;2022-07-23T03:01:42;37.13;;;25.25;;
20657;SDS011;10488;50.846;4.078;2022-07-23T03:04:09;39.95;;;25.88;;
20657;SDS011;10488;50.846;4.078;2022-07-23T03:06:34;38.85;;;25.58;;
20657;SDS011;10488;50.846;4.078;2022-07-23T03:09:00;39.30;;;25.63;;
20657;SDS011;10488;50.846;4.078;2022-07-23T03:11:26;33.97;;;23.80;;
20657;SDS011;10488;50.846;4.078;2022-07-23T03:13:52;37.20;;;24.33;;
20657;SDS011;10488;50.846;4.078;2022-07-23T03:16:17;41.47;;;24.60;;
20657;SDS011;10488;50.846;4.078;2022-07-23T03:18:43;43.60;;;25.90;;
20657;SDS011;10488;50.846;4.078;2022-07-23T03:21:09;44.33;;;25.67;;
20657;SDS011;10488;50.846;4.078;2022-07-23T03:23:34;39.58;;;23.63;;
20657;SDS011;10488;50.846;4.078;2022-07-23T03:26:00;38.67;;;25.98;;
20657;SDS011;10488;50.846;4.078;2022-07-23T03:28:26;38.78;;;25.27;;
20657;SDS011;10488;50.846;4.078;2022-07-23T03:30:51;34.28;;;22.77;;
20657;SDS011;10488;50.846;4.078;2022-07-23T03:33:18;38.67;;;25.08;;
20657;SDS011;10488;50.846;4.078;2022-07-23T03:35:44;34.33;;;22.80;;
20657;SDS011;10488;50.846;4.078;2022-07-23T03:38:10;36.10;;;23.88;;
20657;SDS011;10488;50.846;4.078;2022-07-23T03:40:37;37.70;;;24.15;;
20657;SDS011;10488;50.846;4.078;2022-07-23T03:43:03;39.15;;;24.05;;
20657;SDS011;10488;50.846;4.078;2022-07-23T03:45:28;40.78;;;24.60;;
20657;SDS011;10488;50.846;4.078;2022-07-23T03:47:54;48.63;;;25.38;;
20657;SDS011;10488;50.846;4.078;2022-07-23T03:50:20;35.20;;;23.73;;
20657;SDS011;10488;50.846;4.078;2022-07-23T03:52:46;36.67;;;24.67;;
20657;SDS011;10488;50.846;4.078;2022-07-23T03:55:11;42.65;;;25.80;;
20657;SDS011;10488;50.846;4.078;2022-07-23T03:57:37;46.85;;;27.33;;
20657;SDS011;10488;50.846;4.078;2022-07-23T04:00:04;40.60;;;25.35;;
20657;SDS011;10488;50.846;4.078;2022-07-23T04:02:31;41.65;;;25.83;;
20657;SDS011;10488;50.846;4.078;2022-07-23T04:04:57;38.05;;;24.55;;
20657;SDS011;10488;50.846;4.078;2022-07-23T04:07:23;42.92;;;25.15;;
20657;SDS011;10488;50.846;4.078;2022-07-23T04:09:49;41.75;;;25.40;;
20657;SDS011;10488;50.846;4.078;2022-07-23T04:12:14;40.63;;;26.27;;
20657;SDS011;10488;50.846;4.078;2022-07-23T04:14:40;39.08;;;24.92;;
20657;SDS011;10488;50.846;4.078;2022-07-23T04:17:06;47.60;;;26.52;;
20657;SDS011;10488;50.846;4.078;2022-07-23T04:19:32;41.13;;;27.45;;
20657;SDS011;10488;50.846;4.078;2022-07-23T04:21:57;41.72;;;27.73;;
20657;SDS011;10488;50.846;4.078;2022-07-23T04:24:23;40.35;;;25.27;;
20657;SDS011;10488;50.846;4.078;2022-07-23T04:26:49;50.50;;;28.85;;
20657;SDS011;10488;50.846;4.078;2022-07-23T04:29:15;50.92;;;28.70;;
20657;SDS011;10488;50.846;4.078;2022-07-23T04:31:40;41.90;;;26.45;;
20657;SDS011;10488;50.846;4.078;2022-07-23T04:34:06;41.05;;;25.58;;
20657;SDS011;10488;50.846;4.078;2022-07-23T04:36:31;36.92;;;25.42;;
20657;SDS011;10488;50.846;4.078;2022-07-23T04:38:57;34.63;;;23.70;;
20657;SDS011;10488;50.846;4.078;2022-07-23T04:41:23;38.30;;;24.25;;
20657;SDS011;10488;50.846;4.078;2022-07-23T04:43:48;35.42;;;23.52;;
20657;SDS011;10488;50.846;4.078;2022-07-23T04:46:14;36.40;;;24.92;;
20657;SDS011;10488;50.846;4.078;2022-07-23T04:48:40;39.05;;;23.92;;
20657;SDS011;10488;50.846;4.078;2022-07-23T04:51:07;41.42;;;24.23;;
20657;SDS011;10488;50.846;4.078;2022-07-23T04:53:33;35.00;;;23.88;;
20657;SDS011;10488;50.846;4.078;2022-07-23T04:55:59;32.97;;;22.30;;
20657;SDS011;10488;50.846;4.078;2022-07-23T04:58:25;33.13;;;22.83;;
20657;SDS011;10488;50.846;4.078;2022-07-23T05:00:50;32.95;;;23.50;;
20657;SDS011;10488;50.846;4.078;2022-07-23T05:03:16;30.40;;;21.67;;
20657;SDS011;10488;50.846;4.078;2022-07-23T05:05:42;30.00;;;22.13;;
20657;SDS011;10488;50.846;4.078;2022-07-23T05:08:08;26.95;;;20.63;;
20657;SDS011;10488;50.846;4.078;2022-07-23T05:10:34;27.75;;;21.30;;
20657;SDS011;10488;50.846;4.078;2022-07-23T05:12:59;26.52;;;19.65;;
20657;SDS011;10488;50.846;4.078;2022-07-23T05:15:25;33.60;;;21.48;;
20657;SDS011;10488;50.846;4.078;2022-07-23T05:17:51;27.38;;;20.02;;
20657;SDS011;10488;50.846;4.078;2022-07-23T05:20:17;28.50;;;19.23;;
20657;SDS011;10488;50.846;4.078;2022-07-23T05:22:42;24.17;;;18.95;;
20657;SDS011;10488;50.846;4.078;2022-07-23T05:25:08;28.63;;;18.92;;
20657;SDS011;10488;50.846;4.078;2022-07-23T05:27:34;23.45;;;18.95;;
20657;SDS011;10488;50.846;4.078;2022-07-23T05:30:00;23.77;;;18.33;;
20657;SDS011;10488;50.846;4.078;2022-07-23T05:32:26;21.80;;;17.10;;
20657;SDS011;10488;50.846;4.078;2022-07-23T05:34:51;20.90;;;17.88;;
20657;SDS011;10488;50.846;4.078;2022-07-23T05:37:17;29.45;;;17.63;;
20657;SDS011;10488;50.846;4.078;2022-07-23T05:39:43;23.85;;;17.60;;
20657;SDS011;10488;50.846;4.078;2022-07-23T05:42:08;23.15;;;16.60;;
20657;SDS011;10488;50.846;4.078;2022-07-23T05:44:34;24.77;;;18.42;;
20657;SDS011;10488;50.846;4.078;2022-07-23T05:47:00;19.40;;;15.48;;
20657;SDS011;10488;50.846;4.078;2022-07-23T05:49:26;19.52;;;16.10;;
20657;SDS011;10488;50.846;4.078;2022-07-23T05:51:52;17.10;;;13.52;;
20657;SDS011;10488;50.846;4.078;2022-07-23T05:54:17;21.60;;;13.98;;
20657;SDS011;10488;50.846;4.078;2022-07-23T05:56:43;16.73;;;12.68;;
20657;SDS011;10488;50.846;4.078;2022-07-23T05:59:09;14.35;;;12.38;;
20657;SDS011;10488;50.846;4.078;2022-07-23T06:01:34;17.33;;;11.55;;
20657;SDS011;10488;50.846;4.078;2022-07-23T06:04:00;19.05;;;12.27;;
20657;SDS011;10488;50.846;4.078;2022-07-23T06:06:26;16.55;;;12.15;;
20657;SDS011;10488;50.846;4.078;2022-07-23T06:08:51;14.27;;;11.30;;
20657;SDS011;10488;50.846;4.078;2022-07-23T06:11:17;14.50;;;11.13;;
20657;SDS011;10488;50.846;4.078;2022-07-23T06:13:43;13.57;;;10.82;;
20657;SDS011;10488;50.846;4.078;2022-07-23T06:16:09;14.10;;;11.50;;
20657;SDS011;10488;50.846;4.078;2022-07-23T06:18:34;14.68;;;11.55;;
20657;SDS011;10488;50.846;4.078;2022-07-23T06:21:00;12.68;;;10.98;;
20657;SDS011;10488;50.846;4.078;2022-07-23T06:23:26;11.15;;;9.95;;
20657;SDS011;10488;50.846;4.078;2022-07-23T06:25:51;15.88;;;9.57;;
20657;SDS011;10488;50.846;4.078;2022-07-23T06:28:17;14.90;;;11.02;;
20657;SDS011;10488;50.846;4.078;2022-07-23T06:30:43;14.70;;;11.43;;
20657;SDS011;10488;50.846;4.078;2022-07-23T06:33:08;14.68;;;10.13;;
20657;SDS011;10488;50.846;4.078;2022-07-23T06:35:36;13.68;;;10.88;;
20657;SDS011;10488;50.846;4.078;2022-07-23T06:38:02;13.32;;;10.80;;
20657;SDS011;10488;50.846;4.078;2022-07-23T06:40:28;14.77;;;10.10;;
20657;SDS011;10488;50.846;4.078;2022-07-23T06:42:53;11.45;;;9.82;;
20657;SDS011;10488;50.846;4.078;2022-07-23T06:45:19;13.40;;;9.70;;
20657;SDS011;10488;50.846;4.078;2022-07-23T06:47:45;18.02;;;9.55;;
20657;SDS011;10488;50.846;4.078;2022-07-23T06:50:11;10.00;;;8.98;;
20657;SDS011;10488;50.846;4.078;2022-07-23T06:52:36;11.35;;;9.38;;
20657;SDS011;10488;50.846;4.078;2022-07-23T06:55:02;11.48;;;9.55;;
20657;SDS011;10488;50.846;4.078;2022-07-23T06:57:28;11.82;;;9.48;;
20657;SDS011;10488;50.846;4.078;2022-07-23T06:59:54;11.63;;;9.85;;
20657;SDS011;10488;50.846;4.078;2022-07-23T07:02:19;14.80;;;9.82;;
20657;SDS011;10488;50.846;4.078;2022-07-23T07:04:45;12.90;;;9.65;;
20657;SDS011;10488;50.846;4.078;2022-07-23T07:07:11;13.05;;;10.57;;
20657;SDS011;10488;50.846;4.078;2022-07-23T07:09:37;18.65;;;10.50;;
20657;SDS011;10488;50.846;4.078;2022-07-23T07:12:03;14.40;;;9.95;;
20657;SDS011;10488;50.846;4.078;2022-07-23T07:14:29;9.20;;;8.18;;
20657;SDS011;10488;50.846;4.078;2022-07-23T07:16:55;11.23;;;9.50;;
20657;SDS011;10488;50.846;4.078;2022-07-23T07:19:20;12.55;;;8.82;;
20657;SDS011;10488;50.846;4.078;2022-07-23T07:21:46;16.60;;;9.13;;
20657;SDS011;10488;50.846;4.078;2022-07-23T07:24:11;10.07;;;8.05;;
20657;SDS011;10488;50.846;4.078;2022-07-23T07:26:37;10.82;;;8.90;;
20657;SDS011;10488;50.846;4.078;2022-07-23T07:29:04;12.95;;;8.98;;
20657;SDS011;10488;50.846;4.078;2022-07-23T07:31:30;15.18;;;10.18;;
20657;SDS011;10488;50.846;4.078;2022-07-23T07:33:56;13.75;;;9.45;;
20657;SDS011;10488;50.846;4.078;2022-07-23T07:36:23;12.73;;;9.52;;
20657;SDS011;10488;50.846;4.078;2022-07-23T07:38:48;12.27;;;9.55;;
20657;SDS011;10488;50.846;4.078;2022-07-23T07:41:14;10.98;;;9.05;;
20657;SDS011;10488;50.846;4.078;2022-07-23T07:43:40;12.73;;;10.13;;
20657;SDS011;10488;50.846;4.078;2022-07-23T07:46:06;10.25;;;8.40;;
20657;SDS011;10488;50.846;4.078;2022-07-23T07:48:35;11.88;;;9.65;;
20657;SDS011;10488;50.846;4.078;2022-07-23T07:51:04;13.93;;;9.25;;
20657;SDS011;10488;50.846;4.078;2022-07-23T07:53:30;12.90;;;8.98;;
20657;SDS011;10488;50.846;4.078;2022-07-23T07:55:55;13.05;;;9.13;;
20657;SDS011;10488;50.846;4.078;2022-07-23T07:58:21;11.45;;;9.15;;
20657;SDS011;10488;50.846;4.078;2022-07-23T08:00:47;10.52;;;9.05;;
20657;SDS011;10488;50.846;4.078;2022-07-23T08:03:13;13.68;;;8.93;;
20657;SDS011;10488;50.846;4.078;2022-07-23T08:05:38;13.52;;;9.38;;
20657;SDS011;10488;50.846;4.078;2022-07-23T08:08:04;12.40;;;8.55;;
20657;SDS011;10488;50.846;4.078;2022-07-23T08:10:30;14.93;;;8.85;;
20657;SDS011;10488;50.846;4.078;2022-07-23T08:12:56;12.25;;;8.25;;
20657;SDS011;10488;50.846;4.078;2022-07-23T08:15:23;9.73;;;7.70;;
20657;SDS011;10488;50.846;4.078;2022-07-23T08:17:50;10.77;;;8.45;;
20657;SDS011;10488;50.846;4.078;2022-07-23T08:20:17;11.82;;;8.05;;
20657;SDS011;10488;50.846;4.078;2022-07-23T08:22:51;12.30;;;8.27;;
20657;SDS011;10488;50.846;4.078;2022-07-23T08:25:25;10.85;;;7.80;;
20657;SDS011;10488;50.846;4.078;2022-07-23T08:27:55;9.05;;;6.85;;
20657;SDS011;10488;50.846;4.078;2022-07-23T08:30:21;10.05;;;7.68;;
20657;SDS011;10488;50.846;4.078;2022-07-23T08:35:26;11.98;;;7.32;;
20657;SDS011;10488;50.846;4.078;2022-07-23T08:37:57;9.05;;;6.65;;
20657;SDS011;10488;50.846;4.078;2022-07-23T08:40:27;10.48;;;6.85;;
20657;SDS011;10488;50.846;4.078;2022-07-23T08:42:55;8.77;;;6.57;;
20657;SDS011;10488;50.846;4.078;2022-07-23T08:45:21;13.00;;;7.65;;
20657;SDS011;10488;50.846;4.078;2022-07-23T08:47:52;10.23;;;7.25;;
20657;SDS011;10488;50.846;4.078;2022-07-23T08:50:20;11.82;;;5.90;;
20657;SDS011;10488;50.846;4.078;2022-07-23T08:52:48;9.85;;;6.65;;
20657;SDS011;10488;50.846;4.078;2022-07-23T08:55:18;10.82;;;6.22;;
20657;SDS011;10488;50.846;4.078;2022-07-23T08:57:46;9.10;;;5.75;;
20657;SDS011;10488;50.846;4.078;2022-07-23T09:00:13;7.60;;;5.60;;
20657;SDS011;10488;50.846;4.078;2022-07-23T09:02:41;7.70;;;5.93;;
20657;SDS011;10488;50.846;4.078;2022-07-23T09:05:09;9.13;;;6.05;;
20657;SDS011;10488;50.846;4.078;2022-07-23T09:08:03;10.38;;;6.03;;
20657;SDS011;10488;50.846;4.078;2022-07-23T09:10:46;9.90;;;5.28;;
20657;SDS011;10488;50.846;4.078;2022-07-23T09:18:56;9.35;;;5.63;;
20657;SDS011;10488;50.846;4.078;2022-07-23T09:21:28;9.77;;;5.47;;
20657;SDS011;10488;50.846;4.078;2022-07-23T09:24:01;9.55;;;5.40;;
20657;SDS011;10488;50.846;4.078;2022-07-23T09:29:14;7.85;;;5.40;;
20657;SDS011;10488;50.846;4.078;2022-07-23T09:34:11;9.40;;;5.95;;
20657;SDS011;10488;50.846;4.078;2022-07-23T09:36:43;7.22;;;4.95;;
20657;SDS011;10488;50.846;4.078;2022-07-23T09:39:10;7.03;;;5.30;;
20657;SDS011;10488;50.846;4.078;2022-07-23T09:41:43;6.90;;;4.32;;
20657;SDS011;10488;50.846;4.078;2022-07-23T09:44:18;6.85;;;5.60;;
20657;SDS011;10488;50.846;4.078;2022-07-23T09:46:51;8.25;;;5.45;;
20657;SDS011;10488;50.846;4.078;2022-07-23T09:49:23;8.27;;;4.63;;
20657;SDS011;10488;50.846;4.078;2022-07-23T09:54:36;9.15;;;5.25;;
20657;SDS011;10488;50.846;4.078;2022-07-23T09:57:04;9.25;;;4.30;;
20657;SDS011;10488;50.846;4.078;2022-07-23T09:59:42;6.88;;;4.45;;
20657;SDS011;10488;50.846;4.078;2022-07-23T10:02:10;6.82;;;5.00;;
20657;SDS011;10488;50.846;4.078;2022-07-23T10:04:37;14.50;;;5.28;;
20657;SDS011;10488;50.846;4.078;2022-07-23T10:07:04;7.32;;;5.13;;
20657;SDS011;10488;50.846;4.078;2022-07-23T10:09:33;9.00;;;5.53;;
20657;SDS011;10488;50.846;4.078;2022-07-23T10:12:11;8.00;;;5.18;;
20657;SDS011;10488;50.846;4.078;2022-07-23T10:14:46;7.22;;;4.70;;
20657;SDS011;10488;50.846;4.078;2022-07-23T10:17:13;4.53;;;4.13;;
20657;SDS011;10488;50.846;4.078;2022-07-23T10:19:39;7.00;;;3.92;;
20657;SDS011;10488;50.846;4.078;2022-07-23T10:27:30;10.63;;;4.00;;
20657;SDS011;10488;50.846;4.078;2022-07-23T10:39:05;10.32;;;6.93;;
20657;SDS011;10488;50.846;4.078;2022-07-23T10:41:49;5.22;;;3.65;;
20657;SDS011;10488;50.846;4.078;2022-07-23T10:44:17;4.75;;;3.47;;
20657;SDS011;10488;50.846;4.078;2022-07-23T10:46:57;8.75;;;5.38;;
20657;SDS011;10488;50.846;4.078;2022-07-23T10:49:53;9.63;;;4.32;;
20657;SDS011;10488;50.846;4.078;2022-07-23T10:52:39;7.75;;;4.55;;
20657;SDS011;10488;50.846;4.078;2022-07-23T10:57:46;5.32;;;3.47;;
20657;SDS011;10488;50.846;4.078;2022-07-23T11:00:16;8.20;;;3.25;;
20657;SDS011;10488;50.846;4.078;2022-07-23T11:02:47;4.07;;;3.45;;
20657;SDS011;10488;50.846;4.078;2022-07-23T11:05:21;3.75;;;2.85;;
20657;SDS011;10488;50.846;4.078;2022-07-23T11:13:27;3.47;;;2.67;;
20657;SDS011;10488;50.846;4.078;2022-07-23T11:26:56;5.18;;;2.97;;
20657;SDS011;10488;50.846;4.078;2022-07-23T11:32:01;4.50;;;2.67;;
20657;SDS011;10488;50.846;4.078;2022-07-23T11:34:40;3.92;;;2.40;;
20657;SDS011;10488;50.846;4.078;2022-07-23T11:37:08;4.18;;;2.60;;
20657;SDS011;10488;50.846;4.078;2022-07-23T11:39:35;9.50;;;3.42;;
20657;SDS011;10488;50.846;4.078;2022-07-23T11:42:03;5.05;;;2.97;;
20657;SDS011;10488;50.846;4.078;2022-07-23T11:44:31;9.40;;;2.95;;
20657;SDS011;10488;50.846;4.078;2022-07-23T11:46:58;5.68;;;3.00;;
20657;SDS011;10488;50.846;4.078;2022-07-23T11:49:26;7.07;;;2.95;;
20657;SDS011;10488;50.846;4.078;2022-07-23T11:54:31;4.97;;;3.13;;
20657;SDS011;10488;50.846;4.078;2022-07-23T11:56:58;5.40;;;3.35;;
20657;SDS011;10488;50.846;4.078;2022-07-23T11:59:29;5.95;;;3.33;;
20657;SDS011;10488;50.846;4.078;2022-07-23T12:02:01;9.40;;;2.70;;
20657;SDS011;10488;50.846;4.078;2022-07-23T12:04:39;8.82;;;3.70;;
20657;SDS011;10488;50.846;4.078;2022-07-23T12:09:55;8.00;;;3.75;;
20657;SDS011;10488;50.846;4.078;2022-07-23T12:12:29;5.78;;;3.28;;
20657;SDS011;10488;50.846;4.078;2022-07-23T12:15:00;8.57;;;3.80;;
20657;SDS011;10488;50.846;4.078;2022-07-23T12:17:27;5.85;;;3.95;;
20657;SDS011;10488;50.846;4.078;2022-07-23T12:19:54;3.70;;;2.72;;
20657;SDS011;10488;50.846;4.078;2022-07-23T12:22:23;5.72;;;3.65;;
20657;SDS011;10488;50.846;4.078;2022-07-23T12:27:22;4.10;;;2.97;;
20657;SDS011;10488;50.846;4.078;2022-07-23T12:29:48;6.97;;;3.53;;
20657;SDS011;10488;50.846;4.078;2022-07-23T12:32:21;4.43;;;3.28;;
20657;SDS011;10488;50.846;4.078;2022-07-23T12:34:49;4.60;;;3.10;;
20657;SDS011;10488;50.846;4.078;2022-07-23T12:37:36;3.72;;;2.72;;
20657;SDS011;10488;50.846;4.078;2022-07-23T12:42:52;4.60;;;2.95;;
20657;SDS011;10488;50.846;4.078;2022-07-23T12:45:23;3.95;;;2.88;;
20657;SDS011;10488;50.846;4.078;2022-07-23T12:47:50;3.55;;;2.72;;
20657;SDS011;10488;50.846;4.078;2022-07-23T12:53:04;7.20;;;2.78;;
20657;SDS011;10488;50.846;4.078;2022-07-23T12:55:53;6.38;;;2.97;;
20657;SDS011;10488;50.846;4.078;2022-07-23T13:09:07;6.68;;;2.92;;
20657;SDS011;10488;50.846;4.078;2022-07-23T13:11:34;5.47;;;3.22;;
20657;SDS011;10488;50.846;4.078;2022-07-23T13:14:00;3.92;;;3.33;;
20657;SDS011;10488;50.846;4.078;2022-07-23T13:16:27;5.45;;;3.38;;
20657;SDS011;10488;50.846;4.078;2022-07-23T13:18:53;6.95;;;3.05;;
20657;SDS011;10488;50.846;4.078;2022-07-23T13:21:18;5.95;;;3.28;;
20657;SDS011;10488;50.846;4.078;2022-07-23T13:23:44;5.80;;;3.45;;
20657;SDS011;10488;50.846;4.078;2022-07-23T13:26:10;3.63;;;3.05;;
20657;SDS011;10488;50.846;4.078;2022-07-23T13:28:36;5.60;;;3.47;;
20657;SDS011;10488;50.846;4.078;2022-07-23T13:31:01;4.55;;;3.70;;
20657;SDS011;10488;50.846;4.078;2022-07-23T13:33:27;7.13;;;3.47;;
20657;SDS011;10488;50.846;4.078;2022-07-23T13:35:52;5.95;;;3.40;;
20657;SDS011;10488;50.846;4.078;2022-07-23T13:38:19;5.63;;;3.63;;
20657;SDS011;10488;50.846;4.078;2022-07-23T13:40:47;7.15;;;3.08;;
20657;SDS011;10488;50.846;4.078;2022-07-23T13:43:14;7.82;;;3.72;;
20657;SDS011;10488;50.846;4.078;2022-07-23T13:45:42;10.38;;;3.65;;
20657;SDS011;10488;50.846;4.078;2022-07-23T13:48:09;5.15;;;3.60;;
20657;SDS011;10488;50.846;4.078;2022-07-23T13:50:35;6.13;;;3.30;;
20657;SDS011;10488;50.846;4.078;2022-07-23T13:53:03;7.93;;;4.05;;
20657;SDS011;10488;50.846;4.078;2022-07-23T13:55:33;3.97;;;3.42;;
20657;SDS011;10488;50.846;4.078;2022-07-23T13:57:59;5.50;;;3.45;;
20657;SDS011;10488;50.846;4.078;2022-07-23T14:00:26;3.90;;;3.50;;
20657;SDS011;10488;50.846;4.078;2022-07-23T14:02:53;5.40;;;3.42;;
20657;SDS011;10488;50.846;4.078;2022-07-23T14:05:18;6.40;;;3.58;;
20657;SDS011;10488;50.846;4.078;2022-07-23T14:07:44;4.43;;;3.30;;
20657;SDS011;10488;50.846;4.078;2022-07-23T14:10:12;4.50;;;3.20;;
20657;SDS011;10488;50.846;4.078;2022-07-23T14:12:38;5.82;;;3.47;;
20657;SDS011;10488;50.846;4.078;2022-07-23T14:15:05;5.00;;;3.45;;
20657;SDS011;10488;50.846;4.078;2022-07-23T14:17:33;7.80;;;3.85;;
20657;SDS011;10488;50.846;4.078;2022-07-23T14:20:01;6.90;;;3.72;;
20657;SDS011;10488;50.846;4.078;2022-07-23T14:22:27;5.03;;;3.70;;
20657;SDS011;10488;50.846;4.078;2022-07-23T14:24:53;6.72;;;3.92;;
20657;SDS011;10488;50.846;4.078;2022-07-23T14:27:19;8.20;;;3.40;;
20657;SDS011;10488;50.846;4.078;2022-07-23T14:29:44;5.00;;;3.40;;
20657;SDS011;10488;50.846;4.078;2022-07-23T14:32:10;4.32;;;3.53;;
20657;SDS011;10488;50.846;4.078;2022-07-23T14:34:36;6.32;;;4.07;;
20657;SDS011;10488;50.846;4.078;2022-07-23T14:37:02;5.72;;;4.15;;
20657;SDS011;10488;50.846;4.078;2022-07-23T14:39:27;6.43;;;3.60;;
20657;SDS011;10488;50.846;4.078;2022-07-23T14:41:53;6.20;;;3.83;;
20657;SDS011;10488;50.846;4.078;2022-07-23T14:44:19;5.35;;;3.83;;
20657;SDS011;10488;50.846;4.078;2022-07-23T14:46:44;9.07;;;4.50;;
20657;SDS011;10488;50.846;4.078;2022-07-23T14:49:10;7.85;;;4.65;;
20657;SDS011;10488;50.846;4.078;2022-07-23T14:51:36;6.60;;;4.22;;
20657;SDS011;10488;50.846;4.078;2022-07-23T14:54:02;6.13;;;4.25;;
20657;SDS011;10488;50.846;4.078;2022-07-23T14:56:31;5.47;;;3.80;;
20657;SDS011;10488;50.846;4.078;2022-07-23T14:58:58;3.92;;;3.47;;
20657;SDS011;10488;50.846;4.078;2022-07-23T15:01:24;9.80;;;3.72;;
20657;SDS011;10488;50.846;4.078;2022-07-23T15:03:50;5.57;;;3.58;;
20657;SDS011;10488;50.846;4.078;2022-07-23T15:06:16;6.82;;;4.57;;
20657;SDS011;10488;50.846;4.078;2022-07-23T15:08:43;6.65;;;4.28;;
20657;SDS011;10488;50.846;4.078;2022-07-23T15:11:08;8.07;;;4.50;;
20657;SDS011;10488;50.846;4.078;2022-07-23T15:13:35;4.85;;;4.35;;
20657;SDS011;10488;50.846;4.078;2022-07-23T15:16:01;5.00;;;4.15;;
20657;SDS011;10488;50.846;4.078;2022-07-23T15:18:28;5.28;;;4.43;;
20657;SDS011;10488;50.846;4.078;2022-07-23T15:20:54;10.48;;;4.80;;
20657;SDS011;10488;50.846;4.078;2022-07-23T15:23:20;5.07;;;4.13;;
20657;SDS011;10488;50.846;4.078;2022-07-23T15:25:45;7.13;;;4.22;;
20657;SDS011;10488;50.846;4.078;2022-07-23T15:28:11;5.82;;;4.15;;
20657;SDS011;10488;50.846;4.078;2022-07-23T15:30:37;5.07;;;4.20;;
20657;SDS011;10488;50.846;4.078;2022-07-23T15:33:03;5.50;;;4.45;;
20657;SDS011;10488;50.846;4.078;2022-07-23T15:35:30;7.70;;;4.93;;
20657;SDS011;10488;50.846;4.078;2022-07-23T15:37:56;4.60;;;4.07;;
20657;SDS011;10488;50.846;4.078;2022-07-23T15:40:21;6.35;;;4.40;;
20657;SDS011;10488;50.846;4.078;2022-07-23T15:42:47;4.90;;;4.38;;
20657;SDS011;10488;50.846;4.078;2022-07-23T15:45:13;6.00;;;4.72;;
20657;SDS011;10488;50.846;4.078;2022-07-23T15:47:38;6.47;;;4.28;;
20657;SDS011;10488;50.846;4.078;2022-07-23T15:50:05;4.78;;;4.38;;